createdAt,value
2023-03-30T00:01:01.526Z,7.50
2023-03-30T00:03:31.246Z,7.50
2023-03-30T00:06:05.267Z,7.50
2023-03-30T00:08:33.810Z,7.50
2023-03-30T00:11:02.687Z,7.50
2023-03-30T00:13:32.364Z,7.40
2023-03-30T00:16:01.252Z,7.40
2023-03-30T00:18:30.822Z,7.40
2023-03-30T00:20:59.463Z,7.40
2023-03-30T00:23:27.605Z,7.40
2023-03-30T00:25:56.309Z,7.30
2023-03-30T00:28:25.134Z,7.30
2023-03-30T00:30:53.882Z,7.20
2023-03-30T00:33:33.533Z,7.20
2023-03-30T00:36:09.114Z,7.10
2023-03-30T00:38:37.228Z,7.10
2023-03-30T00:41:05.585Z,7.10
2023-03-30T00:43:33.988Z,7.10
2023-03-30T00:46:02.192Z,7.10
2023-03-30T00:48:34.395Z,7.10
2023-03-30T00:51:07.298Z,7.10
2023-03-30T00:53:41.067Z,7.10
2023-03-30T00:56:11.048Z,7.10
2023-03-30T00:58:40.852Z,7.10
2023-03-30T01:01:12.585Z,7.10
2023-03-30T01:03:46.612Z,7.10
2023-03-30T01:06:18.094Z,7.20
2023-03-30T01:08:48.050Z,7.20
2023-03-30T01:11:16.035Z,7.20
2023-03-30T01:13:48.099Z,7.30
2023-03-30T01:16:25.681Z,7.30
2023-03-30T01:19:06.017Z,7.40
2023-03-30T01:22:07.174Z,7.40
2023-03-30T01:25:10.175Z,7.30
2023-03-30T01:28:05.806Z,7.40
2023-03-30T01:30:50.440Z,7.30
2023-03-30T01:33:48.144Z,7.40
2023-03-30T01:36:41.781Z,7.40
2023-03-30T01:39:40.306Z,7.40
2023-03-30T01:42:17.197Z,7.40
2023-03-30T01:44:52.857Z,7.40
2023-03-30T01:47:25.709Z,7.40
2023-03-30T01:50:00.057Z,7.50
2023-03-30T01:52:31.941Z,7.50
2023-03-30T01:55:05.737Z,7.50
2023-03-30T01:57:42.301Z,7.40
2023-03-30T02:00:15.127Z,7.30
2023-03-30T02:02:47.025Z,7.40
2023-03-30T02:05:17.947Z,7.40
2023-03-30T02:07:50.856Z,7.40
2023-03-30T02:10:22.417Z,7.40
2023-03-30T02:12:52.797Z,7.30
2023-03-30T02:15:21.623Z,7.40
2023-03-30T02:17:49.796Z,7.30
2023-03-30T02:20:19.072Z,7.20
2023-03-30T02:22:47.661Z,7.20
2023-03-30T02:25:17.427Z,7.30
2023-03-30T02:27:46.861Z,7.30
2023-03-30T02:30:15.699Z,7.20
2023-03-30T02:32:46.510Z,7.20
2023-03-30T02:35:31.007Z,7.30
2023-03-30T02:38:32.381Z,7.20
2023-03-30T02:41:10.385Z,7.20
2023-03-30T02:43:49.374Z,7.30
2023-03-30T02:46:39.439Z,7.40
2023-03-30T02:49:16.754Z,7.30
2023-03-30T02:51:48.141Z,7.30
2023-03-30T02:54:27.155Z,7.30
2023-03-30T02:57:03.735Z,7.40
2023-03-30T02:59:38.642Z,7.50
2023-03-30T03:02:11.759Z,7.50
2023-03-30T03:04:43.629Z,7.50
2023-03-30T03:07:12.997Z,7.50
2023-03-30T03:09:41.194Z,7.50
2023-03-30T03:12:09.448Z,7.40
2023-03-30T03:14:39.907Z,7.40
2023-03-30T03:17:08.707Z,7.40
2023-03-30T03:19:37.036Z,7.40
2023-03-30T03:22:05.128Z,7.30
2023-03-30T03:24:33.956Z,7.40
2023-03-30T03:27:02.475Z,7.50
2023-03-30T03:29:30.466Z,7.60
2023-03-30T03:31:59.814Z,7.50
2023-03-30T03:34:31.328Z,7.50
2023-03-30T03:36:59.997Z,7.60
2023-03-30T03:39:28.113Z,7.50
2023-03-30T03:41:56.130Z,7.50
2023-03-30T03:44:24.156Z,7.50
2023-03-30T03:46:52.195Z,7.40
2023-03-30T03:49:21.806Z,7.50
2023-03-30T03:51:49.957Z,7.50
2023-03-30T03:54:18.156Z,7.60
2023-03-30T03:56:46.254Z,7.60
2023-03-30T03:59:14.320Z,7.60
2023-03-30T04:01:42.386Z,7.60
2023-03-30T04:04:10.480Z,7.60
2023-03-30T04:06:39.918Z,7.60
2023-03-30T04:09:07.976Z,7.50
2023-03-30T04:11:36.284Z,7.50
2023-03-30T04:14:04.335Z,7.50
2023-03-30T04:16:32.383Z,7.50
2023-03-30T04:19:00.904Z,7.50
2023-03-30T04:21:30.010Z,7.60
2023-03-30T04:23:59.426Z,7.60
2023-03-30T04:26:28.558Z,7.60
2023-03-30T04:28:56.578Z,7.60
2023-03-30T04:31:24.562Z,7.60
2023-03-30T04:33:53.360Z,7.70
2023-03-30T04:36:22.143Z,7.70
2023-03-30T04:38:58.702Z,7.60
2023-03-30T04:41:34.100Z,7.60
2023-03-30T04:44:03.286Z,7.60
2023-03-30T04:46:31.389Z,7.60
2023-03-30T04:48:59.796Z,7.60
2023-03-30T04:51:28.069Z,7.70
2023-03-30T04:53:56.603Z,7.70
2023-03-30T04:56:24.893Z,7.70
2023-03-30T04:58:54.268Z,7.70
2023-03-30T05:01:22.999Z,7.80
2023-03-30T05:03:51.025Z,7.80
2023-03-30T05:06:19.155Z,7.80
2023-03-30T05:08:47.330Z,7.80
2023-03-30T05:11:16.006Z,7.80
2023-03-30T05:13:44.201Z,7.80
2023-03-30T05:16:13.682Z,7.90
2023-03-30T05:18:41.730Z,8.00
2023-03-30T05:21:09.804Z,8.00
2023-03-30T05:23:39.746Z,8.00
2023-03-30T05:26:08.783Z,8.00
2023-03-30T05:28:36.939Z,8.10
2023-03-30T05:31:05.164Z,8.10
2023-03-30T05:33:34.630Z,8.10
2023-03-30T05:36:02.791Z,8.00
2023-03-30T05:38:30.963Z,8.00
2023-03-30T05:40:59.189Z,8.10
2023-03-30T05:43:27.254Z,8.00
2023-03-30T05:45:55.725Z,8.10
2023-03-30T05:48:23.899Z,8.20
2023-03-30T05:50:53.516Z,8.20
2023-03-30T05:53:21.543Z,8.20
2023-03-30T05:55:51.736Z,8.40
2023-03-30T05:58:19.801Z,8.50
2023-03-30T06:00:48.366Z,8.60
2023-03-30T06:03:17.108Z,8.80
2023-03-30T06:05:46.532Z,8.70
2023-03-30T06:08:16.211Z,9.00
2023-03-30T06:10:44.232Z,8.70
2023-03-30T06:13:12.438Z,8.70
2023-03-30T06:15:40.644Z,8.70
2023-03-30T06:18:08.980Z,8.80
2023-03-30T06:20:37.116Z,8.90
2023-03-30T06:23:05.268Z,9.00
2023-03-30T06:25:36.010Z,9.20
2023-03-30T06:28:04.277Z,9.10
2023-03-30T06:30:32.419Z,9.10
2023-03-30T06:33:00.460Z,9.30
2023-03-30T06:35:29.200Z,9.40
2023-03-30T06:37:57.463Z,9.50
2023-03-30T06:40:25.701Z,9.50
2023-03-30T06:42:55.104Z,9.70
2023-03-30T06:48:20.913Z,9.60
2023-03-30T06:50:49.291Z,9.70
2023-03-30T06:53:17.878Z,9.80
2023-03-30T06:55:46.587Z,9.90
2023-03-30T06:58:16.424Z,10.00
2023-03-30T07:00:44.493Z,10.20
2023-03-30T07:03:12.706Z,10.40
2023-03-30T07:05:41.003Z,10.50
2023-03-30T07:08:09.363Z,10.50
2023-03-30T07:10:37.367Z,10.50
2023-03-30T07:13:06.289Z,10.60
2023-03-30T07:15:35.848Z,10.50
2023-03-30T07:18:04.680Z,10.50
2023-03-30T07:20:32.802Z,10.70
2023-03-30T07:23:00.770Z,10.80
2023-03-30T07:25:28.933Z,10.90
2023-03-30T07:27:57.067Z,11.10
2023-03-30T07:30:26.204Z,11.20
2023-03-30T07:32:58.378Z,11.40
2023-03-30T07:35:27.476Z,11.40
2023-03-30T07:38:02.815Z,11.50
2023-03-30T07:40:31.903Z,11.40
2023-03-30T07:43:00.573Z,11.40
2023-03-30T07:45:29.115Z,11.50
2023-03-30T07:47:58.561Z,11.70
2023-03-30T07:50:26.710Z,11.70
2023-03-30T07:52:55.395Z,11.40
2023-03-30T07:55:23.825Z,11.40
2023-03-30T07:57:52.649Z,11.70
2023-03-30T08:00:21.894Z,11.80
2023-03-30T08:02:50.334Z,11.90
2023-03-30T08:05:19.865Z,12.10
2023-03-30T08:07:48.048Z,12.30
2023-03-30T08:10:16.340Z,12.60
2023-03-30T08:12:44.704Z,13.10
2023-03-30T08:15:13.302Z,13.50
2023-03-30T08:17:41.515Z,13.50
2023-03-30T08:20:11.825Z,13.70
2023-03-30T08:22:41.604Z,13.70
2023-03-30T08:25:10.351Z,13.90
2023-03-30T08:27:38.461Z,14.30
2023-03-30T08:30:07.913Z,14.70
2023-03-30T08:32:36.343Z,14.60
2023-03-30T08:35:05.304Z,14.10
2023-03-30T08:37:33.435Z,14.10
2023-03-30T08:40:05.753Z,14.20
2023-03-30T08:42:47.856Z,14.30
2023-03-30T08:45:16.256Z,14.60
2023-03-30T08:47:48.949Z,14.80
2023-03-30T08:50:20.288Z,14.80
2023-03-30T08:52:48.616Z,14.80
2023-03-30T08:55:25.018Z,14.70
2023-03-30T08:57:57.427Z,14.80
2023-03-30T09:00:34.323Z,14.80
2023-03-30T09:03:11.026Z,15.30
2023-03-30T09:05:44.852Z,15.20
2023-03-30T09:08:18.284Z,14.90
2023-03-30T09:10:52.823Z,15.00
2023-03-30T09:13:26.423Z,15.50
2023-03-30T09:15:58.097Z,17.30
2023-03-30T09:18:31.560Z,20.20
2023-03-30T09:21:02.282Z,21.40
2023-03-30T09:23:32.006Z,22.40
2023-03-30T09:26:13.312Z,23.20
2023-03-30T09:28:50.966Z,22.70
2023-03-30T09:31:26.182Z,23.40
2023-03-30T09:33:59.716Z,24.50
2023-03-30T09:36:32.695Z,26.90
2023-03-30T09:39:00.715Z,29.30
2023-03-30T09:41:49.442Z,29.60
2023-03-30T09:44:25.457Z,27.90
2023-03-30T09:46:59.564Z,28.40
2023-03-30T09:49:29.959Z,27.70
2023-03-30T09:52:03.665Z,28.70
2023-03-30T09:54:39.154Z,30.30
2023-03-30T09:57:25.563Z,30.90
2023-03-30T09:59:56.139Z,26.80
2023-03-30T10:02:27.806Z,23.00
2023-03-30T10:05:02.429Z,21.00
2023-03-30T10:07:34.117Z,19.20
2023-03-30T10:10:13.320Z,18.80
2023-03-30T10:12:43.340Z,20.90
2023-03-30T10:15:18.263Z,24.00
2023-03-30T10:17:48.738Z,25.20
2023-03-30T10:20:26.773Z,23.30
2023-03-30T10:22:56.740Z,24.90
2023-03-30T10:25:28.113Z,25.30
2023-03-30T10:28:02.940Z,23.20
2023-03-30T10:30:32.344Z,21.50
2023-03-30T10:33:03.183Z,21.20
2023-03-30T10:35:37.209Z,21.20
2023-03-30T10:38:07.726Z,21.00
2023-03-30T10:40:37.969Z,21.10
2023-03-30T10:43:14.052Z,20.70
2023-03-30T10:45:47.895Z,20.50
2023-03-30T10:48:31.643Z,20.40
2023-03-30T10:51:08.143Z,19.80
2023-03-30T10:53:43.221Z,19.30
2023-03-30T10:56:21.503Z,18.70
2023-03-30T10:59:07.705Z,18.30
2023-03-30T11:01:45.097Z,18.10
2023-03-30T11:04:23.750Z,17.90
2023-03-30T11:06:54.575Z,17.80
2023-03-30T11:09:28.179Z,17.60
2023-03-30T11:11:59.792Z,17.40
2023-03-30T11:14:40.462Z,17.40
2023-03-30T11:17:12.781Z,17.30
2023-03-30T11:19:44.957Z,17.20
2023-03-30T11:22:18.998Z,17.20
2023-03-30T11:24:50.591Z,17.50
2023-03-30T11:27:23.586Z,17.60
2023-03-30T11:29:58.261Z,17.70
2023-03-30T11:32:32.670Z,17.80
2023-03-30T11:35:11.792Z,17.80
2023-03-30T11:37:46.400Z,17.80
2023-03-30T11:40:18.568Z,17.60
2023-03-30T11:42:48.450Z,17.60
2023-03-30T11:45:34.936Z,17.50
2023-03-30T11:48:16.957Z,17.40
2023-03-30T11:51:02.595Z,17.50
2023-03-30T11:53:36.700Z,17.60
2023-03-30T11:56:08.858Z,17.60
2023-03-30T11:58:39.804Z,17.80
2023-03-30T12:01:40.572Z,18.10
2023-03-30T12:04:12.252Z,18.40
2023-03-30T12:06:42.479Z,18.50
2023-03-30T12:09:26.002Z,18.40
2023-03-30T12:11:58.778Z,18.30
2023-03-30T12:14:55.054Z,18.00
2023-03-30T12:17:36.089Z,18.00
2023-03-30T12:20:13.998Z,18.00
2023-03-30T12:22:47.385Z,18.00
2023-03-30T12:25:26.106Z,18.10
2023-03-30T12:27:59.753Z,18.00
2023-03-30T12:30:29.678Z,17.90
2023-03-30T12:33:04.494Z,17.90
2023-03-30T12:35:55.035Z,17.70
2023-03-30T12:38:25.793Z,17.40
2023-03-30T12:41:20.845Z,17.20
2023-03-30T12:44:18.700Z,16.90
2023-03-30T12:46:59.424Z,16.60
2023-03-30T12:49:38.886Z,16.40
2023-03-30T12:52:14.595Z,16.20
2023-03-30T12:55:00.977Z,16.20
2023-03-30T12:57:53.439Z,16.20
2023-03-30T13:00:47.908Z,16.20
2023-03-30T13:03:31.657Z,16.20
2023-03-30T13:06:03.716Z,16.10
2023-03-30T13:08:36.391Z,16.00
2023-03-30T13:11:15.528Z,15.90
2023-03-30T13:13:50.022Z,15.80
2023-03-30T13:16:49.801Z,15.80
2023-03-30T13:19:27.807Z,15.80
2023-03-30T13:22:20.367Z,15.90
2023-03-30T13:24:54.659Z,15.70
2023-03-30T13:27:27.122Z,15.80
2023-03-30T13:29:57.682Z,15.70
2023-03-30T13:32:35.314Z,15.70
2023-03-30T13:35:15.171Z,15.70
2023-03-30T13:38:07.080Z,15.60
2023-03-30T13:40:46.429Z,15.50
2023-03-30T13:43:39.913Z,15.50
2023-03-30T13:46:17.728Z,15.40
2023-03-30T13:48:58.368Z,15.30
2023-03-30T13:51:28.431Z,15.20
2023-03-30T13:54:01.108Z,15.20
2023-03-30T13:56:32.508Z,15.10
2023-03-30T13:59:06.258Z,15.10
2023-03-30T14:01:35.366Z,15.10
2023-03-30T14:04:04.786Z,15.00
2023-03-30T14:06:35.356Z,14.90
2023-03-30T14:09:14.679Z,14.90
2023-03-30T14:11:45.899Z,15.00
2023-03-30T14:14:20.534Z,14.90
2023-03-30T14:16:48.663Z,14.90
2023-03-30T14:19:24.305Z,14.90
2023-03-30T14:21:56.874Z,14.90
2023-03-30T14:24:31.060Z,14.90
2023-03-30T14:27:07.966Z,14.90
2023-03-30T14:29:44.582Z,14.70
2023-03-30T14:32:15.314Z,14.70
2023-03-30T14:34:49.085Z,14.60
2023-03-30T14:37:19.696Z,14.50
2023-03-30T14:39:54.679Z,14.50
2023-03-30T14:42:25.247Z,14.40
2023-03-30T14:44:56.428Z,14.40
2023-03-30T14:47:26.113Z,14.30
2023-03-30T14:49:57.411Z,14.20
2023-03-30T14:52:30.098Z,14.10
2023-03-30T14:55:07.944Z,14.10
2023-03-30T14:57:40.483Z,14.00
2023-03-30T15:00:21.225Z,13.90
2023-03-30T15:02:51.866Z,13.90
2023-03-30T15:05:21.925Z,13.80
2023-03-30T15:07:51.437Z,13.80
2023-03-30T15:10:26.615Z,13.70
2023-03-30T15:12:57.655Z,13.60
2023-03-30T15:15:30.490Z,13.50
2023-03-30T15:17:59.179Z,13.40
2023-03-30T15:20:29.610Z,13.30
2023-03-30T15:22:57.898Z,13.10
2023-03-30T15:25:32.033Z,13.10
2023-03-30T15:28:03.655Z,13.10
2023-03-30T15:30:35.807Z,13.10
2023-03-30T15:33:04.004Z,13.00
2023-03-30T15:35:33.390Z,13.00
2023-03-30T15:38:02.889Z,12.90
2023-03-30T15:40:35.828Z,12.80
2023-03-30T15:43:19.135Z,12.80
2023-03-30T15:45:53.364Z,12.70
2023-03-30T15:48:24.471Z,12.50
2023-03-30T15:50:56.527Z,12.50
2023-03-30T15:53:35.040Z,12.40
2023-03-30T15:56:06.819Z,12.30
2023-03-30T15:58:35.873Z,12.30
2023-03-30T16:01:06.001Z,12.20
2023-03-30T16:03:38.747Z,12.10
2023-03-30T16:06:07.565Z,12.10
2023-03-30T16:08:35.839Z,11.90
2023-03-30T16:11:05.644Z,11.90
2023-03-30T16:13:33.778Z,11.70
2023-03-30T16:16:01.828Z,11.70
2023-03-30T16:18:29.790Z,11.70
2023-03-30T16:20:57.760Z,11.70
2023-03-30T16:23:25.740Z,11.70
2023-03-30T16:25:53.710Z,11.70
2023-03-30T16:28:23.069Z,11.70
2023-03-30T16:30:53.221Z,11.50
2023-03-30T16:33:21.268Z,11.70
2023-03-30T16:35:49.272Z,11.60
2023-03-30T16:38:18.565Z,11.50
2023-03-30T16:40:49.687Z,11.50
2023-03-30T16:43:17.676Z,11.50
2023-03-30T16:45:47.017Z,11.40
2023-03-30T16:48:15.498Z,11.30
2023-03-30T16:50:44.863Z,11.30
2023-03-30T16:53:13.173Z,11.30
2023-03-30T16:55:41.528Z,11.40
2023-03-30T16:58:13.759Z,11.40
2023-03-30T17:00:43.640Z,11.40
2023-03-30T17:03:13.080Z,11.30
2023-03-30T17:05:41.241Z,11.30
2023-03-30T17:08:17.045Z,11.30
2023-03-30T17:10:45.014Z,11.30
2023-03-30T17:13:13.011Z,11.30
2023-03-30T17:15:41.110Z,11.30
2023-03-30T17:18:17.032Z,11.30
2023-03-30T17:20:48.147Z,11.40
2023-03-30T17:23:17.701Z,11.30
2023-03-30T17:25:48.985Z,11.30
2023-03-30T17:28:22.225Z,11.30
2023-03-30T17:30:51.739Z,11.30
2023-03-30T17:33:21.468Z,11.30
2023-03-30T17:35:51.738Z,11.30
2023-03-30T17:38:19.761Z,11.40
2023-03-30T17:40:48.730Z,11.30
2023-03-30T17:43:16.898Z,11.30
2023-03-30T17:45:46.506Z,11.30
2023-03-30T17:48:16.598Z,11.30
2023-03-30T17:50:47.987Z,11.30
2023-03-30T17:53:17.656Z,11.30
2023-03-30T17:55:46.515Z,11.20
2023-03-30T17:58:18.716Z,11.20
2023-03-30T18:00:47.919Z,11.20
2023-03-30T18:03:16.753Z,11.20
2023-03-30T18:05:46.862Z,11.20
2023-03-30T18:08:17.578Z,11.20
2023-03-30T18:10:48.499Z,11.10
2023-03-30T18:13:16.948Z,11.20
2023-03-30T18:15:46.302Z,11.20
2023-03-30T18:18:22.357Z,11.10
2023-03-30T18:20:53.899Z,11.10
2023-03-30T18:23:22.774Z,11.10
2023-03-30T18:25:51.065Z,11.20
2023-03-30T18:28:21.518Z,11.20
2023-03-30T18:30:49.901Z,11.20
2023-03-30T18:33:18.346Z,11.20
2023-03-30T18:35:48.355Z,11.30
2023-03-30T18:38:19.787Z,11.30
2023-03-30T18:40:49.735Z,11.30
2023-03-30T18:43:18.194Z,11.40
2023-03-30T18:45:48.588Z,11.30
2023-03-30T18:48:18.847Z,11.30
2023-03-30T18:50:48.256Z,11.30
2023-03-30T18:53:19.469Z,11.30
2023-03-30T18:55:49.211Z,11.30
2023-03-30T18:58:20.169Z,11.30
2023-03-30T19:00:49.580Z,11.30
2023-03-30T19:03:18.452Z,11.30
2023-03-30T19:05:47.285Z,11.30
2023-03-30T19:08:18.633Z,11.30
2023-03-30T19:10:48.105Z,11.30
2023-03-30T19:13:17.469Z,11.30
2023-03-30T19:15:46.974Z,11.30
2023-03-30T19:18:15.765Z,11.30
2023-03-30T19:20:43.704Z,11.30
2023-03-30T19:23:14.101Z,11.30
2023-03-30T19:25:43.763Z,11.20
2023-03-30T19:28:12.276Z,11.30
2023-03-30T19:30:41.115Z,11.30
2023-03-30T19:33:12.137Z,11.30
2023-03-30T19:35:41.601Z,11.30
2023-03-30T19:38:09.748Z,11.30
2023-03-30T19:40:38.512Z,11.30
2023-03-30T19:43:08.030Z,11.20
2023-03-30T19:45:36.314Z,11.20
2023-03-30T19:48:04.541Z,11.10
2023-03-30T19:50:32.802Z,11.10
2023-03-30T19:53:00.800Z,11.00
2023-03-30T19:55:29.304Z,10.90
2023-03-30T19:57:57.257Z,10.90
2023-03-30T20:00:26.593Z,10.90
2023-03-30T20:02:59.521Z,10.90
2023-03-30T20:05:27.609Z,10.90
2023-03-30T20:07:57.580Z,11.00
2023-03-30T20:10:27.549Z,10.90
2023-03-30T20:12:55.693Z,11.00
2023-03-30T20:15:26.567Z,11.00
2023-03-30T20:17:58.544Z,11.00
2023-03-30T20:20:27.077Z,10.90
2023-03-30T20:22:56.480Z,11.00
2023-03-30T20:25:24.899Z,11.00
2023-03-30T20:27:53.466Z,11.00
2023-03-30T20:30:21.892Z,11.00
2023-03-30T20:33:06.301Z,11.00
2023-03-30T20:35:37.108Z,10.90
2023-03-30T20:38:05.542Z,10.90
2023-03-30T20:40:33.788Z,10.90
2023-03-30T20:43:03.365Z,10.90
2023-03-30T20:45:32.306Z,10.90
2023-03-30T20:48:16.216Z,10.90
2023-03-30T20:50:44.287Z,11.00
2023-03-30T20:53:12.264Z,11.00
2023-03-30T20:55:40.229Z,11.00
2023-03-30T20:58:08.196Z,10.90
2023-03-30T21:00:36.149Z,10.80
2023-03-30T21:03:06.118Z,10.80
2023-03-30T21:05:34.169Z,10.80
2023-03-30T21:08:03.393Z,10.80
2023-03-30T21:10:31.445Z,10.70
2023-03-30T21:12:59.385Z,10.70
2023-03-30T21:15:27.450Z,10.70
2023-03-30T21:17:55.444Z,10.70
2023-03-30T21:20:24.780Z,10.60
2023-03-30T21:22:52.788Z,10.60
2023-03-30T21:25:20.741Z,10.60
2023-03-30T21:27:48.762Z,10.60
2023-03-30T21:30:17.343Z,10.50
2023-03-30T21:32:45.325Z,10.60
2023-03-30T21:35:13.375Z,10.50
2023-03-30T21:37:42.724Z,10.50
2023-03-30T21:40:11.801Z,10.50
2023-03-30T21:42:39.739Z,10.50
2023-03-30T21:45:10.655Z,10.50
2023-03-30T21:47:38.752Z,10.50
2023-03-30T21:50:08.133Z,10.60
2023-03-30T21:52:36.245Z,10.60
2023-03-30T21:55:06.273Z,10.60
2023-03-30T21:57:34.248Z,10.70
2023-03-30T22:00:02.186Z,10.70
2023-03-30T22:02:30.305Z,10.70
2023-03-30T22:04:59.890Z,10.70
2023-03-30T22:07:27.864Z,10.80
2023-03-30T22:09:57.978Z,10.80
2023-03-30T22:12:27.351Z,10.80
2023-03-30T22:14:55.432Z,10.90
2023-03-30T22:17:34.691Z,10.90
2023-03-30T22:20:02.823Z,11.00
2023-03-30T22:22:30.958Z,11.00
2023-03-30T22:24:58.902Z,11.00
2023-03-30T22:27:28.205Z,11.00
2023-03-30T22:29:56.237Z,11.10
2023-03-30T22:32:24.228Z,11.00
2023-03-30T22:34:53.315Z,11.00
2023-03-30T22:37:21.321Z,11.00
2023-03-30T22:39:49.299Z,11.00
2023-03-30T22:42:17.306Z,10.90
2023-03-30T22:44:46.968Z,10.90
2023-03-30T22:47:14.919Z,10.90
2023-03-30T22:49:42.898Z,10.90
2023-03-30T22:52:10.861Z,10.90
2023-03-30T22:54:38.871Z,10.80
2023-03-30T22:57:06.866Z,10.80
2023-03-30T22:59:34.931Z,10.80
2023-03-30T23:02:04.313Z,10.80
2023-03-30T23:04:34.259Z,10.80
2023-03-30T23:07:03.494Z,10.80
2023-03-30T23:09:32.038Z,10.80
2023-03-30T23:12:00.762Z,10.90
2023-03-30T23:14:28.848Z,10.80
2023-03-30T23:16:57.790Z,10.80
2023-03-30T23:19:29.241Z,10.70
2023-03-30T23:21:57.612Z,10.70
2023-03-30T23:24:25.792Z,10.70
2023-03-30T23:26:53.770Z,10.60
2023-03-30T23:29:21.790Z,10.60
2023-03-30T23:31:52.136Z,10.70
2023-03-30T23:34:20.112Z,10.70
2023-03-30T23:36:51.076Z,10.80
2023-03-30T23:39:19.016Z,10.80
2023-03-30T23:41:47.092Z,10.80
2023-03-30T23:44:15.109Z,10.90
2023-03-30T23:46:43.071Z,10.90
2023-03-30T23:49:11.201Z,10.90
2023-03-30T23:51:39.219Z,10.90
2023-03-30T23:54:08.672Z,10.90
2023-03-30T23:56:37.948Z,10.90
2023-03-30T23:59:06.521Z,10.90
